createdAt,value
2023-05-05T00:01:21.694Z,55.32
2023-05-05T00:04:07.889Z,55.53
2023-05-05T00:06:54.118Z,55.60
2023-05-05T00:09:41.923Z,56.17
2023-05-05T00:12:28.667Z,56.42
2023-05-05T00:15:15.411Z,56.45
2023-05-05T00:18:02.293Z,56.48
2023-05-05T00:20:49.183Z,56.55
2023-05-05T00:23:36.030Z,56.56
2023-05-05T00:26:23.081Z,57.02
2023-05-05T00:29:09.809Z,57.35
2023-05-05T00:31:56.634Z,57.44
2023-05-05T00:34:43.139Z,57.52
2023-05-05T00:37:29.593Z,57.29
2023-05-05T00:40:18.452Z,57.66
2023-05-05T00:43:05.275Z,57.58
2023-05-05T00:46:01.937Z,57.63
2023-05-05T00:48:48.680Z,57.99
2023-05-05T00:51:35.277Z,58.06
2023-05-05T00:54:22.475Z,58.47
2023-05-05T00:57:09.460Z,58.48
2023-05-05T00:59:56.316Z,59.11
2023-05-05T01:02:42.548Z,59.18
2023-05-05T01:05:41.724Z,59.36
2023-05-05T01:09:02.075Z,59.26
2023-05-05T01:12:01.229Z,59.59
2023-05-05T01:14:59.322Z,59.99
2023-05-05T01:18:01.695Z,59.96
2023-05-05T01:21:00.753Z,60.07
2023-05-05T01:24:08.869Z,60.30
2023-05-05T01:27:19.860Z,60.09
2023-05-05T01:30:59.175Z,59.95
2023-05-05T01:33:54.726Z,60.08
2023-05-05T01:36:49.489Z,60.47
2023-05-05T01:39:37.806Z,60.54
2023-05-05T01:42:26.744Z,60.88
2023-05-05T01:45:16.103Z,60.74
2023-05-05T01:48:05.588Z,61.25
2023-05-05T01:50:53.984Z,61.32
2023-05-05T01:53:41.537Z,63.27
2023-05-05T01:56:31.595Z,68.31
2023-05-05T01:59:21.132Z,63.26
2023-05-05T02:02:10.465Z,53.14
2023-05-05T02:04:58.737Z,51.49
2023-05-05T02:07:50.120Z,52.68
2023-05-05T02:10:40.961Z,54.64
2023-05-05T02:13:32.608Z,55.67
2023-05-05T02:16:21.107Z,57.49
2023-05-05T02:19:08.728Z,58.61
2023-05-05T02:21:54.976Z,59.27
2023-05-05T02:24:41.353Z,60.65
2023-05-05T02:27:28.637Z,61.65
2023-05-05T02:30:19.787Z,65.37
2023-05-05T02:33:11.339Z,65.56
2023-05-05T02:36:04.311Z,55.90
2023-05-05T02:39:01.276Z,53.72
2023-05-05T02:41:51.303Z,55.32
2023-05-05T02:44:46.004Z,57.85
2023-05-05T02:47:37.744Z,59.55
2023-05-05T02:50:25.246Z,60.90
2023-05-05T02:53:26.957Z,61.21
2023-05-05T02:56:34.388Z,63.42
2023-05-05T02:59:38.176Z,64.73
2023-05-05T03:02:36.105Z,61.51
2023-05-05T03:05:28.334Z,53.66
2023-05-05T03:08:25.869Z,52.72
2023-05-05T03:11:23.440Z,54.51
2023-05-05T03:14:13.285Z,57.08
2023-05-05T03:17:01.954Z,59.47
2023-05-05T03:19:50.447Z,61.02
2023-05-05T03:22:37.675Z,62.75
2023-05-05T03:25:45.198Z,61.22
2023-05-05T03:28:36.489Z,55.63
2023-05-05T03:31:28.597Z,56.67
2023-05-05T03:34:17.419Z,58.23
2023-05-05T03:37:05.775Z,59.27
2023-05-05T03:39:52.583Z,61.36
2023-05-05T03:42:40.040Z,66.29
2023-05-05T03:45:26.555Z,65.36
2023-05-05T03:48:13.344Z,55.11
2023-05-05T03:51:00.533Z,54.28
2023-05-05T03:53:47.777Z,55.70
2023-05-05T03:56:35.000Z,57.36
2023-05-05T03:59:21.293Z,59.21
2023-05-05T04:02:07.818Z,60.87
2023-05-05T04:04:54.511Z,64.89
2023-05-05T04:07:41.468Z,62.83
2023-05-05T04:10:28.233Z,55.11
2023-05-05T04:13:14.922Z,53.97
2023-05-05T04:16:02.059Z,56.12
2023-05-05T04:18:48.726Z,57.89
2023-05-05T04:21:35.692Z,59.20
2023-05-05T04:24:24.891Z,60.48
2023-05-05T04:27:12.313Z,61.20
2023-05-05T04:29:59.127Z,63.93
2023-05-05T04:32:45.725Z,62.46
2023-05-05T04:35:33.079Z,55.45
2023-05-05T04:38:21.136Z,53.74
2023-05-05T04:41:08.268Z,54.96
2023-05-05T04:43:55.868Z,58.43
2023-05-05T04:46:42.483Z,59.23
2023-05-05T04:49:30.346Z,60.21
2023-05-05T04:52:17.360Z,61.53
2023-05-05T04:55:04.756Z,63.40
2023-05-05T04:57:52.497Z,62.60
2023-05-05T05:00:39.242Z,54.86
2023-05-05T05:03:25.751Z,54.87
2023-05-05T05:06:13.002Z,58.21
2023-05-05T05:08:59.900Z,59.57
2023-05-05T05:11:46.696Z,59.16
2023-05-05T05:14:39.967Z,61.24
2023-05-05T05:17:27.029Z,63.56
2023-05-05T05:20:14.502Z,62.19
2023-05-05T05:23:02.182Z,54.02
2023-05-05T05:25:49.060Z,55.10
2023-05-05T05:28:36.065Z,56.38
2023-05-05T05:31:22.839Z,58.10
2023-05-05T05:34:12.618Z,59.78
2023-05-05T05:36:59.570Z,60.75
2023-05-05T05:39:52.157Z,62.95
2023-05-05T05:42:40.270Z,64.07
2023-05-05T05:45:27.282Z,55.20
2023-05-05T05:48:14.538Z,54.88
2023-05-05T05:51:02.536Z,56.74
2023-05-05T05:53:49.533Z,58.43
2023-05-05T05:56:36.114Z,60.06
2023-05-05T05:59:22.673Z,60.81
2023-05-05T06:02:09.744Z,61.94
2023-05-05T06:04:56.232Z,63.52
2023-05-05T06:07:42.917Z,59.47
2023-05-05T06:10:30.379Z,54.92
2023-05-05T06:13:21.757Z,56.21
2023-05-05T06:16:09.777Z,58.13
2023-05-05T06:18:57.586Z,58.83
2023-05-05T06:21:44.504Z,59.59
2023-05-05T06:24:32.116Z,61.01
2023-05-05T06:27:19.600Z,61.48
2023-05-05T06:30:07.560Z,62.21
2023-05-05T06:32:54.620Z,63.16
2023-05-05T06:35:41.258Z,57.58
2023-05-05T06:38:28.000Z,55.80
2023-05-05T06:41:14.684Z,57.40
2023-05-05T06:44:01.215Z,58.75
2023-05-05T06:46:47.844Z,59.36
2023-05-05T06:49:42.638Z,60.13
2023-05-05T06:52:30.084Z,60.67
2023-05-05T06:55:17.181Z,59.89
2023-05-05T06:58:03.774Z,60.92
2023-05-05T07:00:50.161Z,60.89
2023-05-05T07:03:36.879Z,60.89
2023-05-05T07:06:23.253Z,60.48
2023-05-05T07:09:09.762Z,60.94
2023-05-05T07:11:56.254Z,60.96
2023-05-05T07:14:42.646Z,60.48
2023-05-05T07:17:29.200Z,60.61
2023-05-05T07:20:16.200Z,60.45
2023-05-05T07:23:03.129Z,60.28
2023-05-05T07:25:49.921Z,60.24
2023-05-05T07:28:36.636Z,60.01
2023-05-05T07:31:23.684Z,59.87
2023-05-05T07:34:10.221Z,59.71
2023-05-05T07:36:57.017Z,59.75
2023-05-05T07:39:43.596Z,59.51
2023-05-05T07:42:29.988Z,59.65
2023-05-05T07:45:16.697Z,60.09
2023-05-05T07:48:03.427Z,60.19
2023-05-05T07:50:49.832Z,60.34
2023-05-05T07:53:37.039Z,60.55
2023-05-05T07:56:23.420Z,60.83
2023-05-05T07:59:11.517Z,60.90
2023-05-05T08:01:57.746Z,61.11
2023-05-05T08:04:44.548Z,61.36
2023-05-05T08:07:31.060Z,61.25
2023-05-05T08:10:17.439Z,61.19
2023-05-05T08:13:04.240Z,61.08
2023-05-05T08:15:52.272Z,60.79
2023-05-05T08:18:38.937Z,60.41
2023-05-05T08:21:25.388Z,60.22
2023-05-05T08:24:11.737Z,60.01
2023-05-05T08:26:58.137Z,59.67
2023-05-05T08:29:44.799Z,59.17
2023-05-05T08:32:32.332Z,59.14
2023-05-05T08:35:18.617Z,58.88
2023-05-05T08:38:05.726Z,58.35
2023-05-05T08:40:53.042Z,57.84
2023-05-05T08:43:39.673Z,57.21
2023-05-05T08:46:28.194Z,56.45
2023-05-05T08:49:17.817Z,55.92
2023-05-05T08:52:09.170Z,54.55
2023-05-05T08:55:22.115Z,54.21
2023-05-05T08:58:09.810Z,54.25
2023-05-05T09:00:56.837Z,54.28
2023-05-05T09:03:47.125Z,53.99
2023-05-05T09:06:35.551Z,53.93
2023-05-05T09:09:22.251Z,53.63
2023-05-05T09:12:08.956Z,53.00
2023-05-05T09:18:01.666Z,52.30
2023-05-05T09:20:48.510Z,51.07
2023-05-05T09:23:34.702Z,50.71
2023-05-05T09:26:21.110Z,50.59
2023-05-05T09:29:07.720Z,50.19
2023-05-05T09:32:08.852Z,49.36
2023-05-05T09:35:00.526Z,48.50
2023-05-05T09:37:47.805Z,48.27
2023-05-05T09:40:46.681Z,48.46
2023-05-05T09:43:52.479Z,48.17
2023-05-05T09:46:51.140Z,47.04
2023-05-05T09:49:38.618Z,47.55
2023-05-05T09:52:25.195Z,47.79
2023-05-05T09:55:18.189Z,47.94
2023-05-05T09:58:18.617Z,47.92
2023-05-05T10:01:05.320Z,47.78
2023-05-05T10:03:52.374Z,47.93
2023-05-05T10:06:47.568Z,47.83
2023-05-05T10:09:34.081Z,48.08
2023-05-05T10:12:21.328Z,48.30
2023-05-05T10:15:09.835Z,48.53
2023-05-05T10:18:07.667Z,48.65
2023-05-05T10:20:58.634Z,48.86
2023-05-05T10:24:03.488Z,48.76
2023-05-05T10:26:53.246Z,48.73
2023-05-05T10:29:43.834Z,48.93
2023-05-05T10:33:00.842Z,49.24
2023-05-05T10:36:00.950Z,49.37
2023-05-05T10:38:50.143Z,49.37
2023-05-05T10:41:37.667Z,49.73
2023-05-05T10:44:24.650Z,49.97
2023-05-05T10:47:12.110Z,50.01
2023-05-05T10:50:16.422Z,50.23
2023-05-05T10:53:28.809Z,50.30
2023-05-05T10:56:26.545Z,50.17
2023-05-05T10:59:38.483Z,50.23
2023-05-05T11:02:29.820Z,50.07
2023-05-05T11:05:23.315Z,49.68
2023-05-05T11:08:25.774Z,49.64
2023-05-05T11:11:13.080Z,49.27
2023-05-05T11:14:19.571Z,48.84
2023-05-05T11:17:46.170Z,48.37
2023-05-05T11:20:36.048Z,48.05
2023-05-05T11:23:22.973Z,47.86
2023-05-05T11:26:09.436Z,46.96
2023-05-05T11:29:01.571Z,46.51
2023-05-05T11:32:11.286Z,46.00
2023-05-05T11:34:58.100Z,45.27
2023-05-05T11:37:44.423Z,44.82
2023-05-05T11:40:35.183Z,44.27
2023-05-05T11:43:21.831Z,43.55
2023-05-05T11:46:17.057Z,42.93
2023-05-05T11:49:03.595Z,42.58
2023-05-05T11:51:57.549Z,42.53
2023-05-05T11:54:48.027Z,41.87
2023-05-05T11:57:34.316Z,40.88
2023-05-05T12:00:32.467Z,40.82
2023-05-05T12:03:18.978Z,40.65
2023-05-05T12:06:07.337Z,40.26
2023-05-05T12:08:54.029Z,40.29
2023-05-05T12:11:59.931Z,40.17
2023-05-05T12:14:52.510Z,40.14
2023-05-05T12:17:42.804Z,40.21
2023-05-05T12:20:32.276Z,40.19
2023-05-05T12:23:18.750Z,39.98
2023-05-05T12:26:05.502Z,39.77
2023-05-05T12:28:52.279Z,39.96
2023-05-05T12:31:42.525Z,39.95
2023-05-05T12:34:29.019Z,39.33
2023-05-05T12:37:16.932Z,39.83
2023-05-05T12:40:06.290Z,38.47
2023-05-05T12:42:53.766Z,37.96
2023-05-05T12:45:40.771Z,37.94
2023-05-05T12:48:27.598Z,37.27
2023-05-05T12:51:18.781Z,37.07
2023-05-05T12:54:11.860Z,37.51
2023-05-05T12:56:58.847Z,36.95
2023-05-05T12:59:45.403Z,36.30
2023-05-05T13:02:35.250Z,36.31
2023-05-05T13:05:41.047Z,36.42
2023-05-05T13:08:43.586Z,36.47
2023-05-05T13:11:30.087Z,36.05
2023-05-05T13:14:16.570Z,35.37
2023-05-05T13:17:02.809Z,34.99
2023-05-05T13:19:49.539Z,35.12
2023-05-05T13:22:36.314Z,35.31
2023-05-05T13:25:22.802Z,35.63
2023-05-05T13:28:09.643Z,35.65
2023-05-05T13:30:57.729Z,35.47
2023-05-05T13:33:44.488Z,35.46
2023-05-05T13:36:31.326Z,35.57
2023-05-05T13:39:17.994Z,35.92
2023-05-05T13:42:04.512Z,35.69
2023-05-05T13:44:51.008Z,35.56
2023-05-05T13:47:37.988Z,35.63
2023-05-05T13:50:24.649Z,35.45
2023-05-05T13:53:11.039Z,35.22
2023-05-05T13:55:58.543Z,34.53
2023-05-05T13:58:44.946Z,34.65
2023-05-05T14:01:31.282Z,35.23
2023-05-05T14:04:17.853Z,35.33
2023-05-05T14:07:04.895Z,34.81
2023-05-05T14:09:51.433Z,34.64
2023-05-05T14:12:38.072Z,34.51
2023-05-05T14:15:24.655Z,34.66
2023-05-05T14:18:11.012Z,34.36
2023-05-05T14:20:57.774Z,34.21
2023-05-05T14:23:44.451Z,33.80
2023-05-05T14:26:31.274Z,34.02
2023-05-05T14:29:17.914Z,33.93
2023-05-05T14:32:04.276Z,33.33
2023-05-05T14:34:51.054Z,33.11
2023-05-05T14:37:37.600Z,33.27
2023-05-05T14:40:24.002Z,33.30
2023-05-05T14:43:10.674Z,33.57
2023-05-05T14:46:00.341Z,33.72
2023-05-05T14:48:47.352Z,33.94
2023-05-05T14:51:33.629Z,34.01
2023-05-05T14:54:27.867Z,34.22
2023-05-05T14:57:15.302Z,34.24
2023-05-05T15:00:01.871Z,34.33
2023-05-05T15:02:48.400Z,34.45
2023-05-05T15:05:35.318Z,34.41
2023-05-05T15:08:22.095Z,34.55
2023-05-05T15:11:08.423Z,34.80
2023-05-05T15:13:54.903Z,34.80
2023-05-05T15:16:41.260Z,35.04
2023-05-05T15:19:28.119Z,34.72
2023-05-05T15:22:14.574Z,34.87
2023-05-05T15:25:01.331Z,35.06
2023-05-05T15:27:47.952Z,35.08
2023-05-05T15:30:34.380Z,34.81
2023-05-05T15:33:21.327Z,34.04
2023-05-05T15:36:08.551Z,33.78
2023-05-05T15:38:56.496Z,33.82
2023-05-05T15:41:43.273Z,33.34
2023-05-05T15:44:30.056Z,33.19
2023-05-05T15:47:17.400Z,33.33
2023-05-05T15:50:04.795Z,33.48
2023-05-05T15:52:51.481Z,32.87
2023-05-05T15:55:39.250Z,32.64
2023-05-05T15:58:25.763Z,32.59
2023-05-05T16:01:12.198Z,32.47
2023-05-05T16:04:00.214Z,32.25
2023-05-05T16:06:46.710Z,32.08
2023-05-05T16:09:33.269Z,32.13
2023-05-05T16:12:20.914Z,32.23
2023-05-05T16:15:08.332Z,30.89
2023-05-05T16:17:54.889Z,30.54
2023-05-05T16:20:43.773Z,29.96
2023-05-05T16:23:30.139Z,29.98
2023-05-05T16:26:17.387Z,30.48
2023-05-05T16:29:04.032Z,30.69
2023-05-05T16:31:50.655Z,31.04
2023-05-05T16:34:37.100Z,31.42
2023-05-05T16:37:23.799Z,31.83
2023-05-05T16:40:10.681Z,32.38
2023-05-05T16:42:57.199Z,33.00
2023-05-05T16:45:43.791Z,33.43
2023-05-05T16:48:30.233Z,33.64
2023-05-05T16:51:17.095Z,33.14
2023-05-05T16:54:03.981Z,32.92
2023-05-05T16:56:52.319Z,33.26
2023-05-05T16:59:39.198Z,33.64
2023-05-05T17:02:26.135Z,34.23
2023-05-05T17:05:12.940Z,34.83
2023-05-05T17:07:59.832Z,35.35
2023-05-05T17:10:46.851Z,35.69
2023-05-05T17:13:33.200Z,35.85
2023-05-05T17:16:19.683Z,36.16
2023-05-05T17:19:06.016Z,36.95
2023-05-05T17:21:52.573Z,37.30
2023-05-05T17:24:39.079Z,37.74
2023-05-05T17:27:25.580Z,38.38
2023-05-05T17:30:12.630Z,38.67
2023-05-05T17:32:59.219Z,39.05
2023-05-05T17:35:47.240Z,39.47
2023-05-05T17:38:34.022Z,39.94
2023-05-05T17:41:20.505Z,40.76
2023-05-05T17:44:06.694Z,40.96
2023-05-05T17:46:53.173Z,41.36
2023-05-05T17:49:39.930Z,41.92
2023-05-05T17:52:26.399Z,42.24
2023-05-05T17:55:12.906Z,42.81
2023-05-05T17:57:59.498Z,43.14
2023-05-05T18:00:46.313Z,43.28
2023-05-05T18:03:33.027Z,43.52
2023-05-05T18:06:19.601Z,44.11
2023-05-05T18:09:06.027Z,44.19
2023-05-05T18:11:56.377Z,44.54
2023-05-05T18:14:42.761Z,45.10
2023-05-05T18:17:29.095Z,45.16
2023-05-05T18:20:16.098Z,45.32
2023-05-05T18:23:02.874Z,45.55
2023-05-05T18:25:49.078Z,45.63
2023-05-05T18:28:36.886Z,45.76
2023-05-05T18:31:23.654Z,46.17
2023-05-05T18:34:10.402Z,46.12
2023-05-05T18:36:57.375Z,46.31
2023-05-05T18:39:45.090Z,46.32
2023-05-05T18:42:32.087Z,46.44
2023-05-05T18:45:18.691Z,46.71
2023-05-05T18:48:05.721Z,46.85
2023-05-05T18:50:52.781Z,47.15
2023-05-05T18:53:39.334Z,47.43
2023-05-05T18:56:26.547Z,47.61
2023-05-05T18:59:13.693Z,47.76
2023-05-05T19:01:59.894Z,47.75
2023-05-05T19:04:46.439Z,47.82
2023-05-05T19:07:35.505Z,48.06
2023-05-05T19:10:22.354Z,48.28
2023-05-05T19:13:10.057Z,48.17
2023-05-05T19:15:57.280Z,48.25
2023-05-05T19:18:43.875Z,48.37
2023-05-05T19:21:31.719Z,48.48
2023-05-05T19:24:18.440Z,48.71
2023-05-05T19:27:05.024Z,48.65
2023-05-05T19:29:52.866Z,48.94
2023-05-05T19:32:40.102Z,49.09
2023-05-05T19:35:26.805Z,49.16
2023-05-05T19:38:13.738Z,49.37
2023-05-05T19:41:00.682Z,49.52
2023-05-05T19:43:47.135Z,49.61
2023-05-05T19:46:33.759Z,49.84
2023-05-05T19:49:20.236Z,50.02
2023-05-05T19:52:06.783Z,50.31
2023-05-05T19:54:54.017Z,50.44
2023-05-05T19:57:40.624Z,50.46
2023-05-05T20:00:27.356Z,50.53
2023-05-05T20:03:14.106Z,50.54
2023-05-05T20:06:00.958Z,50.74
2023-05-05T20:08:48.272Z,50.80
2023-05-05T20:11:35.713Z,51.05
2023-05-05T20:14:22.387Z,51.14
2023-05-05T20:17:09.486Z,51.34
2023-05-05T20:19:57.711Z,51.35
2023-05-05T20:22:45.143Z,51.47
2023-05-05T20:25:32.081Z,51.84
2023-05-05T20:28:18.565Z,51.96
2023-05-05T20:31:09.410Z,52.04
2023-05-05T20:33:56.923Z,52.27
2023-05-05T20:36:43.772Z,52.23
2023-05-05T20:39:30.112Z,52.84
2023-05-05T20:42:16.686Z,52.80
2023-05-05T20:45:03.645Z,52.84
2023-05-05T20:47:50.133Z,52.93
2023-05-05T20:50:38.530Z,53.20
2023-05-05T20:53:25.555Z,53.30
2023-05-05T20:56:12.080Z,53.23
2023-05-05T20:58:58.995Z,53.45
2023-05-05T21:01:46.244Z,53.58
2023-05-05T21:04:32.843Z,54.22
2023-05-05T21:07:19.263Z,54.43
2023-05-05T21:10:07.001Z,54.33
2023-05-05T21:12:54.813Z,54.44
2023-05-05T21:15:41.241Z,54.59
2023-05-05T21:18:27.900Z,54.77
2023-05-05T21:21:14.549Z,54.79
2023-05-05T21:24:00.953Z,54.93
2023-05-05T21:26:47.800Z,55.16
2023-05-05T21:29:37.769Z,55.39
2023-05-05T21:32:28.104Z,55.61
2023-05-05T21:35:15.330Z,55.71
2023-05-05T21:38:02.105Z,55.92
2023-05-05T21:40:49.943Z,55.96
2023-05-05T21:43:36.789Z,56.00
2023-05-05T21:46:24.255Z,56.26
2023-05-05T21:49:15.702Z,56.61
2023-05-05T21:52:02.237Z,57.15
2023-05-05T21:54:48.916Z,57.21
2023-05-05T21:57:38.852Z,57.14
2023-05-05T22:00:26.021Z,57.10
2023-05-05T22:03:12.992Z,57.40
2023-05-05T22:05:59.746Z,57.84
2023-05-05T22:08:47.219Z,57.66
2023-05-05T22:11:33.913Z,57.78
2023-05-05T22:14:20.216Z,57.82
2023-05-05T22:17:06.746Z,57.93
2023-05-05T22:19:53.512Z,57.87
2023-05-05T22:22:39.792Z,58.17
2023-05-05T22:25:26.400Z,58.28
2023-05-05T22:28:13.492Z,58.34
2023-05-05T22:31:00.176Z,58.63
2023-05-05T22:33:46.579Z,58.79
2023-05-05T22:36:33.681Z,58.66
2023-05-05T22:39:20.418Z,58.80
2023-05-05T22:42:06.763Z,58.87
2023-05-05T22:44:53.374Z,59.16
2023-05-05T22:47:39.964Z,59.08
2023-05-05T22:50:26.227Z,59.22
2023-05-05T22:53:12.711Z,59.39
2023-05-05T22:55:59.370Z,59.27
2023-05-05T22:58:47.130Z,59.38
2023-05-05T23:01:34.732Z,59.40
2023-05-05T23:04:21.394Z,59.45
2023-05-05T23:07:07.874Z,59.41
2023-05-05T23:09:54.224Z,59.45
2023-05-05T23:12:40.571Z,59.69
2023-05-05T23:15:27.230Z,59.92
2023-05-05T23:18:13.798Z,59.80
2023-05-05T23:21:00.600Z,59.84
2023-05-05T23:23:47.232Z,59.76
2023-05-05T23:26:34.220Z,59.78
2023-05-05T23:29:20.734Z,59.73
2023-05-05T23:32:06.986Z,59.62
2023-05-05T23:34:53.811Z,59.62
2023-05-05T23:37:40.503Z,59.53
2023-05-05T23:40:26.827Z,59.56
2023-05-05T23:43:13.223Z,59.55
2023-05-05T23:45:59.671Z,59.42
2023-05-05T23:48:46.021Z,59.51
2023-05-05T23:51:32.707Z,59.53
2023-05-05T23:54:18.943Z,59.32
2023-05-05T23:57:05.845Z,59.34
2023-05-05T23:59:52.313Z,59.29
